This is the latest recevied weather packets stored in our database for station/object K0NV. If no packets are shown the sender has not sent any weather packets the latest 10 day(s).
| Time | Temp. | Humidity | Pressure | Rain* | Wind** | Luminosity | Snow |
|---|---|---|---|---|---|---|---|
| 1777481488 | 14.44° C | 71% | 1020.2 hPa | 0 mm | - | 615 W/m² | - |
| 1777481184 | 14.44° C | 68% | 1020.2 hPa | 0 mm | - | 678 W/m² | - |
| 1777480881 | 14.44° C | 67% | 1020.3 hPa | 0 mm | - | 407 W/m² | - |
| 1777480577 | 14.44° C | 69% | 1020.6 hPa | 0 mm | - | 559 W/m² | - |
| 1777480275 | 13.89° C | 71% | 1020.5 hPa | 0 mm | - | 383 W/m² | - |
| 1777479970 | 13.89° C | 71% | 1020.7 hPa | 0 mm | - | 718 W/m² | - |
| 1777479668 | 14.44° C | 71% | 1020.7 hPa | 0 mm | - | 654 W/m² | - |
| 1777479366 | 13.89° C | 74% | 1020.7 hPa | 0 mm | - | 717 W/m² | - |
| 1777479062 | 13.33° C | 74% | 1020.8 hPa | 0 mm | - | 621 W/m² | - |
| 1777478758 | 14.44° C | 71% | 1020.8 hPa | 0 mm | - | 435 W/m² | - |
| 1777478455 | 13.89° C | 72% | 1020.7 hPa | 0 mm | - | 583 W/m² | - |
| 1777478151 | 13.89° C | 72% | 1020.8 hPa | 0 mm | - | 566 W/m² | - |
| 1777477848 | 14.44° C | 69% | 1020.7 hPa | 0 mm | - | 774 W/m² | - |
| 1777477543 | 13.89° C | 72% | 1021 hPa | 0 mm | - | 434 W/m² | - |
| 1777477240 | 13.33° C | 72% | 1021.1 hPa | 0 mm | - | 515 W/m² | - |
| 1777476936 | 13.89° C | 69% | 1020.7 hPa | 0 mm | - | 528 W/m² | - |
| 1777476635 | 13.89° C | 71% | 1021.1 hPa | 0 mm | - | 727 W/m² | - |
| 1777476331 | 14.44° C | 72% | 1021 hPa | 0 mm | - | 627 W/m² | - |
| 1777476027 | 13.89° C | 71% | 1021.3 hPa | 0 mm | - | 580 W/m² | - |
| 1777475723 | 12.78° C | 74% | 1020.9 hPa | 0 mm | - | 755 W/m² | - |
| 1777475420 | 13.33° C | 72% | 1021 hPa | 0 mm | - | 676 W/m² | - |
| 1777475114 | 12.78° C | 78% | 1021.1 hPa | 0 mm | - | 682 W/m² | - |
| 1777474812 | 12.22° C | 78% | 1021.1 hPa | 0 mm | - | 721 W/m² | - |
| 1777474507 | 12.78° C | 75% | 1021.1 hPa | 0 mm | - | 702 W/m² | - |
| 1777474204 | 12.78° C | 75% | 1020.9 hPa | 0 mm | - | 684 W/m² | - |
* Rain latest hour (hover to see other rain measurements)
** Current wind speed in m/s (hover to see current wind gust speed)